createdAt,value
2018-01-11T00:00:24.381Z,929.70
2018-01-11T00:01:55.926Z,929.78
2018-01-11T00:03:27.746Z,929.78
2018-01-11T00:04:59.564Z,929.80
2018-01-11T00:06:31.382Z,929.73
2018-01-11T00:08:03.202Z,929.77
2018-01-11T00:09:35.046Z,929.79
2018-01-11T00:11:06.839Z,929.83
2018-01-11T00:12:38.757Z,929.81
2018-01-11T00:14:10.475Z,929.85
2018-01-11T00:15:42.293Z,929.94
2018-01-11T00:17:14.112Z,929.94
2018-01-11T00:18:45.931Z,929.92
2018-01-11T00:20:17.750Z,929.95
2018-01-11T00:21:49.569Z,929.94
2018-01-11T00:23:21.387Z,929.95
2018-01-11T00:24:53.205Z,929.90
2018-01-11T00:26:25.024Z,929.92
2018-01-11T00:27:56.843Z,929.91
2018-01-11T00:29:28.661Z,929.91
2018-01-11T00:31:00.480Z,929.96
2018-01-11T00:32:32.298Z,929.98
2018-01-11T00:34:04.117Z,930.02
2018-01-11T00:35:35.935Z,930.02
2018-01-11T00:37:07.754Z,930.00
2018-01-11T00:38:39.572Z,929.96
2018-01-11T00:40:11.391Z,929.98
2018-01-11T00:41:43.209Z,929.93
2018-01-11T00:43:15.128Z,929.93
2018-01-11T00:44:46.846Z,929.94
2018-01-11T00:46:18.672Z,929.90
2018-01-11T00:47:50.483Z,929.88
2018-01-11T00:49:22.302Z,929.94
2018-01-11T00:50:54.120Z,930.00
2018-01-11T00:52:25.941Z,929.96
2018-01-11T00:53:57.757Z,930.01
2018-01-11T00:55:29.576Z,930.01
2018-01-11T00:57:01.395Z,930.08
2018-01-11T00:58:33.213Z,930.04
2018-01-11T01:00:05.032Z,930.06
2018-01-11T01:01:36.859Z,930.08
2018-01-11T01:03:08.668Z,930.11
2018-01-11T01:04:40.486Z,930.08
2018-01-11T01:06:12.304Z,930.05
2018-01-11T01:07:44.123Z,930.07
2018-01-11T01:09:15.941Z,930.16
2018-01-11T01:10:47.760Z,930.14
2018-01-11T01:12:19.578Z,930.20
2018-01-11T01:13:51.397Z,930.16
2018-01-11T01:15:23.215Z,930.23
2018-01-11T01:16:55.034Z,930.18
2018-01-11T01:18:26.854Z,930.17
2018-01-11T01:19:58.671Z,930.21
2018-01-11T01:21:30.490Z,930.18
2018-01-11T01:23:02.310Z,930.24
2018-01-11T01:24:34.127Z,930.22
2018-01-11T01:26:05.947Z,930.17
2018-01-11T01:27:37.763Z,930.14
2018-01-11T01:29:09.582Z,930.11
2018-01-11T01:30:41.400Z,930.13
2018-01-11T01:32:13.218Z,930.11
2018-01-11T01:33:45.037Z,930.11
2018-01-11T01:35:16.856Z,930.11
2018-01-11T01:36:48.674Z,930.09
2018-01-11T01:38:20.493Z,930.06
2018-01-11T01:39:52.312Z,930.08
2018-01-11T01:41:24.131Z,930.09
2018-01-11T01:42:55.948Z,930.11
2018-01-11T01:44:27.768Z,930.15
2018-01-11T01:45:59.586Z,930.12
2018-01-11T01:47:31.404Z,930.08
2018-01-11T01:49:03.224Z,930.11
2018-01-11T01:50:35.042Z,930.08
2018-01-11T01:52:06.862Z,930.10
2018-01-11T01:53:38.681Z,930.09
2018-01-11T01:55:10.497Z,930.04
2018-01-11T01:56:42.316Z,930.03
2018-01-11T01:58:14.136Z,930.05
2018-01-11T01:59:45.953Z,930.02
2018-01-11T02:01:17.773Z,930.06
2018-01-11T02:02:49.590Z,930.05
2018-01-11T02:04:21.409Z,929.99
2018-01-11T02:05:53.228Z,929.94
2018-01-11T02:07:25.050Z,929.94
2018-01-11T02:08:56.866Z,929.97
2018-01-11T02:10:28.684Z,929.87
2018-01-11T02:12:00.504Z,929.89
2018-01-11T02:13:32.322Z,929.81
2018-01-11T02:15:04.141Z,929.76
2018-01-11T02:16:35.960Z,929.69
2018-01-11T02:18:07.778Z,929.72
2018-01-11T02:19:39.597Z,929.64
2018-01-11T02:21:11.416Z,929.61
2018-01-11T02:22:43.235Z,929.65
2018-01-11T02:24:15.053Z,929.58
2018-01-11T02:25:46.876Z,929.60
2018-01-11T02:27:18.691Z,929.61
2018-01-11T02:28:50.510Z,929.61
2018-01-11T02:30:22.328Z,929.54
2018-01-11T02:31:54.149Z,929.53
2018-01-11T02:33:25.969Z,929.52
2018-01-11T02:34:57.783Z,929.50
2018-01-11T02:36:29.602Z,929.49
2018-01-11T02:38:01.420Z,929.53
2018-01-11T02:39:33.238Z,929.47
2018-01-11T02:41:05.056Z,929.46
2018-01-11T02:42:36.875Z,929.39
2018-01-11T02:44:08.694Z,929.42
2018-01-11T02:45:40.515Z,929.38
2018-01-11T02:47:12.329Z,929.30
2018-01-11T02:48:44.150Z,929.32
2018-01-11T02:50:15.966Z,929.35
2018-01-11T02:51:47.784Z,929.31
2018-01-11T02:53:19.602Z,929.29
2018-01-11T02:54:51.421Z,929.26
2018-01-11T02:56:23.239Z,929.27
2018-01-11T02:57:55.058Z,929.26
2018-01-11T02:59:26.875Z,929.23
2018-01-11T03:00:58.695Z,929.25
2018-01-11T03:02:30.512Z,929.29
2018-01-11T03:04:02.330Z,929.20
2018-01-11T03:05:34.147Z,929.19
2018-01-11T03:07:05.966Z,929.21
2018-01-11T03:08:37.784Z,929.19
2018-01-11T03:10:09.602Z,929.19
2018-01-11T03:11:41.420Z,929.14
2018-01-11T03:13:13.238Z,929.12
2018-01-11T03:14:45.056Z,929.09
2018-01-11T03:16:16.874Z,929.04
2018-01-11T03:17:48.692Z,929.02
2018-01-11T03:19:20.509Z,928.95
2018-01-11T03:20:52.327Z,928.97
2018-01-11T03:22:24.144Z,928.94
2018-01-11T03:23:55.963Z,928.90
2018-01-11T03:25:27.782Z,928.90
2018-01-11T03:26:59.599Z,928.91
2018-01-11T03:28:31.417Z,928.88
2018-01-11T03:30:03.239Z,928.82
2018-01-11T03:31:35.053Z,928.80
2018-01-11T03:33:06.871Z,928.75
2018-01-11T03:34:38.689Z,928.75
2018-01-11T03:36:10.507Z,928.74
2018-01-11T03:37:42.325Z,928.67
2018-01-11T03:39:14.143Z,928.68
2018-01-11T03:40:45.961Z,928.68
2018-01-11T03:42:17.779Z,928.63
2018-01-11T03:43:49.597Z,928.63
2018-01-11T03:45:21.415Z,928.58
2018-01-11T03:46:53.236Z,928.61
2018-01-11T03:48:25.054Z,928.61
2018-01-11T03:49:56.869Z,928.53
2018-01-11T03:51:28.687Z,928.48
2018-01-11T03:53:00.505Z,928.44
2018-01-11T03:54:32.323Z,928.49
2018-01-11T03:56:04.142Z,928.54
2018-01-11T03:57:35.960Z,928.53
2018-01-11T03:59:07.777Z,928.60
2018-01-11T04:00:39.596Z,928.55
2018-01-11T04:02:11.415Z,928.50
2018-01-11T04:03:43.232Z,928.46
2018-01-11T04:05:15.049Z,928.48
2018-01-11T04:06:46.870Z,928.46
2018-01-11T04:08:18.685Z,928.49
2018-01-11T04:09:50.504Z,928.46
2018-01-11T04:11:22.322Z,928.45
2018-01-11T04:12:54.139Z,928.43
2018-01-11T04:14:25.960Z,928.44
2018-01-11T04:15:57.775Z,928.42
2018-01-11T04:17:29.594Z,928.45
2018-01-11T04:19:01.411Z,928.41
2018-01-11T04:20:33.229Z,928.42
2018-01-11T04:22:05.047Z,928.42
2018-01-11T04:23:36.865Z,928.39
2018-01-11T04:25:08.683Z,928.42
2018-01-11T04:26:40.501Z,928.41
2018-01-11T04:28:12.319Z,928.38
2018-01-11T04:29:44.139Z,928.38
2018-01-11T04:31:15.956Z,928.36
2018-01-11T04:32:47.772Z,928.35
2018-01-11T04:34:19.591Z,928.36
2018-01-11T04:35:51.408Z,928.35
2018-01-11T04:37:23.226Z,928.29
2018-01-11T04:38:55.044Z,928.33
2018-01-11T04:40:26.862Z,928.29
2018-01-11T04:41:58.680Z,928.28
2018-01-11T04:43:30.497Z,928.27
2018-01-11T04:45:02.315Z,928.26
2018-01-11T04:46:34.134Z,928.25
2018-01-11T04:48:05.951Z,928.23
2018-01-11T04:49:37.768Z,928.22
2018-01-11T04:51:09.586Z,928.25
2018-01-11T04:52:41.403Z,928.19
2018-01-11T04:54:13.221Z,928.18
2018-01-11T04:55:45.038Z,928.20
2018-01-11T04:57:16.856Z,928.19
2018-01-11T04:58:48.673Z,928.18
2018-01-11T05:00:20.491Z,928.18
2018-01-11T05:01:52.309Z,928.13
2018-01-11T05:03:24.127Z,928.17
2018-01-11T05:04:55.944Z,928.10
2018-01-11T05:06:27.911Z,928.08
2018-01-11T05:07:59.758Z,928.06
2018-01-11T05:09:31.397Z,928.01
2018-01-11T05:11:03.212Z,928.03
2018-01-11T05:12:35.030Z,928.05
2018-01-11T05:14:06.850Z,928.01
2018-01-11T05:15:38.665Z,928.05
2018-01-11T05:17:10.498Z,928.08
2018-01-11T05:18:42.351Z,928.12
2018-01-11T05:20:14.118Z,928.06
2018-01-11T05:21:45.935Z,928.07
2018-01-11T05:23:17.756Z,928.10
2018-01-11T05:24:49.571Z,928.08
2018-01-11T05:26:21.388Z,928.05
2018-01-11T05:27:53.205Z,928.07
2018-01-11T05:29:25.023Z,928.07
2018-01-11T05:30:56.841Z,928.05
2018-01-11T05:32:28.658Z,928.02
2018-01-11T05:34:00.481Z,928.05
2018-01-11T05:35:32.301Z,928.00
2018-01-11T05:37:04.115Z,928.06
2018-01-11T05:38:35.933Z,928.03
2018-01-11T05:40:07.750Z,928.05
2018-01-11T05:41:39.569Z,928.01
2018-01-11T05:43:11.385Z,927.99
2018-01-11T05:44:43.201Z,927.95
2018-01-11T05:46:15.020Z,927.94
2018-01-11T05:47:46.836Z,927.92
2018-01-11T05:49:18.655Z,927.93
2018-01-11T05:50:50.472Z,927.93
2018-01-11T05:52:22.290Z,927.89
2018-01-11T05:53:54.107Z,927.82
2018-01-11T05:55:25.924Z,927.80
2018-01-11T05:56:57.743Z,927.82
2018-01-11T05:58:29.562Z,927.81
2018-01-11T06:00:01.377Z,927.83
2018-01-11T06:01:33.196Z,927.82
2018-01-11T06:03:05.012Z,927.82
2018-01-11T06:04:36.829Z,927.76
2018-01-11T06:06:08.646Z,927.73
2018-01-11T06:07:40.464Z,927.78
2018-01-11T06:09:12.281Z,927.76
2018-01-11T06:10:44.099Z,927.73
2018-01-11T06:12:15.916Z,927.78
2018-01-11T06:13:47.733Z,927.79
2018-01-11T06:15:19.550Z,927.82
2018-01-11T06:16:51.367Z,927.79
2018-01-11T06:18:23.184Z,927.80
2018-01-11T06:19:55.002Z,927.77
2018-01-11T06:21:26.819Z,927.77
2018-01-11T06:22:58.637Z,927.78
2018-01-11T06:24:30.453Z,927.76
2018-01-11T06:26:02.270Z,927.75
2018-01-11T06:27:34.088Z,927.74
2018-01-11T06:29:05.905Z,927.74
2018-01-11T06:30:37.722Z,927.73
2018-01-11T06:32:09.539Z,927.70
2018-01-11T06:33:41.357Z,927.66
2018-01-11T06:35:13.174Z,927.67
2018-01-11T06:36:44.992Z,927.67
2018-01-11T06:38:16.809Z,927.67
2018-01-11T06:39:48.631Z,927.75
2018-01-11T06:41:20.444Z,927.78
2018-01-11T06:42:52.262Z,927.74
2018-01-11T06:44:24.079Z,927.78
2018-01-11T06:45:55.896Z,927.78
2018-01-11T06:47:27.714Z,927.72
2018-01-11T06:48:59.531Z,927.76
2018-01-11T06:50:31.348Z,927.75
2018-01-11T06:52:03.168Z,927.77
2018-01-11T06:53:34.986Z,927.76
2018-01-11T06:55:06.801Z,927.72
2018-01-11T06:56:38.617Z,927.73
2018-01-11T06:58:10.435Z,927.75
2018-01-11T06:59:42.253Z,927.75
2018-01-11T07:01:14.070Z,927.74
2018-01-11T07:02:45.887Z,927.77
2018-01-11T07:04:17.705Z,927.82
2018-01-11T07:05:49.523Z,927.81
2018-01-11T07:07:21.340Z,927.80
2018-01-11T07:08:55.011Z,927.82
2018-01-11T07:10:24.975Z,927.78
2018-01-11T07:11:56.799Z,927.81
2018-01-11T07:13:28.609Z,927.83
2018-01-11T07:15:00.428Z,927.86
2018-01-11T07:16:32.244Z,927.87
2018-01-11T07:18:04.061Z,927.85
2018-01-11T07:19:35.879Z,927.84
2018-01-11T07:21:07.696Z,927.88
2018-01-11T07:22:39.513Z,927.84
2018-01-11T07:24:11.331Z,927.85
2018-01-11T07:25:43.148Z,927.83
2018-01-11T07:27:14.966Z,927.83
2018-01-11T07:28:46.783Z,927.89
2018-01-11T07:30:18.600Z,927.83
2018-01-11T07:31:50.417Z,927.86
2018-01-11T07:33:22.235Z,927.88
2018-01-11T07:34:54.051Z,927.87
2018-01-11T07:36:25.868Z,927.84
2018-01-11T07:37:57.686Z,927.87
2018-01-11T07:39:29.503Z,927.83
2018-01-11T07:41:01.319Z,927.83
2018-01-11T07:42:33.137Z,927.88
2018-01-11T07:44:04.953Z,927.88
2018-01-11T07:45:36.771Z,927.86
2018-01-11T07:47:08.588Z,927.85
2018-01-11T07:48:40.405Z,927.88
2018-01-11T07:50:12.222Z,927.84
2018-01-11T07:51:44.094Z,927.89
2018-01-11T07:53:15.856Z,927.84
2018-01-11T07:54:47.674Z,927.85
2018-01-11T07:56:19.490Z,927.81
2018-01-11T07:57:51.309Z,927.84
2018-01-11T07:59:23.129Z,927.84
2018-01-11T08:00:54.945Z,927.91
2018-01-11T08:02:26.760Z,927.92
2018-01-11T08:03:58.576Z,927.88
2018-01-11T08:05:30.393Z,927.86
2018-01-11T08:07:02.210Z,927.89
2018-01-11T08:08:34.026Z,927.91
2018-01-11T08:10:05.844Z,927.88
2018-01-11T08:11:37.661Z,927.96
2018-01-11T08:13:09.483Z,927.98
2018-01-11T08:14:41.296Z,927.94
2018-01-11T08:16:13.113Z,927.95
2018-01-11T08:17:44.929Z,927.95
2018-01-11T08:19:16.747Z,927.96
2018-01-11T08:20:48.564Z,927.98
2018-01-11T08:22:20.382Z,928.00
2018-01-11T08:23:52.203Z,927.94
2018-01-11T08:25:24.016Z,927.93
2018-01-11T08:26:55.834Z,927.93
2018-01-11T08:28:27.651Z,927.91
2018-01-11T08:29:59.469Z,927.91
2018-01-11T08:31:31.286Z,927.91
2018-01-11T08:33:03.104Z,927.99
2018-01-11T08:34:34.922Z,927.97
2018-01-11T08:36:06.738Z,928.01
2018-01-11T08:37:38.556Z,927.95
2018-01-11T08:39:10.372Z,928.02
2018-01-11T08:40:42.190Z,928.07
2018-01-11T08:42:14.007Z,928.08
2018-01-11T08:43:45.823Z,928.09
2018-01-11T08:45:17.641Z,928.12
2018-01-11T08:46:49.466Z,928.14
2018-01-11T08:48:21.276Z,928.10
2018-01-11T08:49:53.093Z,928.12
2018-01-11T08:51:24.910Z,928.05
2018-01-11T08:52:56.730Z,928.09
2018-01-11T08:54:28.546Z,928.11
2018-01-11T08:56:00.364Z,928.16
2018-01-11T08:57:32.182Z,928.19
2018-01-11T08:59:04.003Z,928.22
2018-01-11T09:00:35.817Z,928.19
2018-01-11T09:02:07.635Z,928.15
2018-01-11T09:03:39.453Z,928.04
2018-01-11T09:05:11.271Z,928.17
2018-01-11T09:06:43.089Z,928.19
2018-01-11T09:08:14.907Z,928.18
2018-01-11T09:09:46.724Z,928.22
2018-01-11T09:11:18.542Z,928.28
2018-01-11T09:12:50.360Z,928.30
2018-01-11T09:14:22.177Z,928.34
2018-01-11T09:15:53.993Z,928.40
2018-01-11T09:17:25.811Z,928.37
2018-01-11T09:18:57.630Z,928.44
2018-01-11T09:20:29.447Z,928.44
2018-01-11T09:22:01.265Z,928.48
2018-01-11T09:23:33.083Z,928.51
2018-01-11T09:25:04.901Z,928.57
2018-01-11T09:26:36.719Z,928.57
2018-01-11T09:28:08.541Z,928.61
2018-01-11T09:29:40.406Z,928.53
2018-01-11T09:31:12.174Z,928.57
2018-01-11T09:32:43.993Z,928.55
2018-01-11T09:34:15.809Z,928.52
2018-01-11T09:35:47.685Z,928.54
2018-01-11T09:37:19.446Z,928.53
2018-01-11T09:38:51.265Z,928.55
2018-01-11T09:40:23.083Z,928.70
2018-01-11T09:41:54.901Z,928.81
2018-01-11T09:43:26.921Z,928.79
2018-01-11T09:44:58.562Z,928.73
2018-01-11T09:46:30.357Z,928.82
2018-01-11T09:48:02.179Z,928.78
2018-01-11T09:49:33.993Z,928.81
2018-01-11T09:51:05.812Z,928.87
2018-01-11T09:52:37.663Z,928.82
2018-01-11T09:54:09.450Z,928.94
2018-01-11T09:55:41.269Z,928.94
2018-01-11T09:57:13.090Z,928.95
2018-01-11T09:58:44.909Z,928.85
2018-01-11T10:00:16.761Z,928.97
2018-01-11T10:01:48.545Z,929.02
2018-01-11T10:03:20.365Z,928.98
2018-01-11T10:04:52.232Z,928.90
2018-01-11T10:06:24.004Z,928.92
2018-01-11T10:07:55.889Z,928.89
2018-01-11T10:09:27.641Z,928.96
2018-01-11T10:10:59.460Z,929.26
2018-01-11T10:12:31.309Z,929.32
2018-01-11T10:14:03.101Z,929.39
2018-01-11T10:15:34.924Z,929.46
2018-01-11T10:17:06.927Z,929.39
2018-01-11T10:18:38.585Z,929.15
2018-01-11T10:20:10.468Z,928.93
2018-01-11T10:21:42.203Z,929.07
2018-01-11T10:23:14.031Z,929.07
2018-01-11T10:24:46.047Z,929.07
2018-01-11T10:26:17.667Z,929.01
2018-01-11T10:27:49.488Z,928.96
2018-01-11T10:29:21.325Z,929.01
2018-01-11T10:30:53.133Z,929.08
2018-01-11T10:32:24.954Z,928.99
2018-01-11T10:33:56.792Z,929.06
2018-01-11T10:35:28.600Z,929.08
2018-01-11T10:37:00.520Z,928.90
2018-01-11T10:38:32.240Z,929.01
2018-01-11T10:40:04.061Z,928.97
2018-01-11T10:41:35.897Z,929.00
2018-01-11T10:43:07.705Z,929.07
2018-01-11T10:44:39.527Z,928.97
2018-01-11T10:46:11.382Z,929.07
2018-01-11T10:47:43.172Z,929.02
2018-01-11T10:49:14.994Z,928.99
2018-01-11T10:50:46.818Z,929.06
2018-01-11T10:52:18.641Z,929.06
2018-01-11T10:53:50.466Z,929.01
2018-01-11T10:55:22.287Z,929.11
2018-01-11T10:56:54.111Z,929.11
2018-01-11T10:58:25.935Z,929.22
2018-01-11T10:59:57.758Z,929.14
2018-01-11T11:01:29.582Z,929.12
2018-01-11T11:03:01.405Z,929.17
2018-01-11T11:04:33.230Z,929.13
2018-01-11T11:06:05.093Z,929.24
2018-01-11T11:07:36.879Z,929.18
2018-01-11T11:09:08.726Z,929.18
2018-01-11T11:10:40.526Z,929.19
2018-01-11T11:12:12.351Z,929.13
2018-01-11T11:13:44.175Z,929.25
2018-01-11T11:15:16.299Z,929.23
2018-01-11T11:16:47.825Z,929.21
2018-01-11T11:18:19.649Z,929.17
2018-01-11T11:19:51.474Z,929.19
2018-01-11T11:21:23.423Z,929.18
2018-01-11T11:22:55.206Z,929.17
2018-01-11T11:24:26.948Z,929.12
2018-01-11T11:25:58.773Z,929.13
2018-01-11T11:27:30.598Z,929.14
2018-01-11T11:29:02.423Z,929.14
2018-01-11T11:30:34.248Z,929.10
2018-01-11T11:32:06.072Z,929.13
2018-01-11T11:33:37.896Z,929.10
2018-01-11T11:35:09.721Z,929.14
2018-01-11T11:36:41.576Z,929.16
2018-01-11T11:38:13.372Z,929.13
2018-01-11T11:39:45.200Z,929.10
2018-01-11T11:41:17.032Z,929.12
2018-01-11T11:42:48.847Z,929.13
2018-01-11T11:44:20.673Z,929.14
2018-01-11T11:45:52.498Z,929.15
2018-01-11T11:47:24.324Z,929.19
2018-01-11T11:48:56.151Z,929.18
2018-01-11T11:50:27.977Z,929.16
2018-01-11T11:51:59.803Z,929.18
2018-01-11T11:53:31.626Z,929.15
2018-01-11T11:55:03.453Z,929.17
2018-01-11T11:56:35.281Z,929.16
2018-01-11T11:58:07.105Z,929.24
2018-01-11T11:59:38.930Z,929.28
2018-01-11T12:01:10.758Z,929.30
2018-01-11T12:02:42.582Z,929.21
2018-01-11T12:04:14.407Z,929.31
2018-01-11T12:05:46.234Z,929.27
2018-01-11T12:07:18.059Z,929.29
2018-01-11T12:08:49.886Z,929.31
2018-01-11T12:10:21.758Z,929.27
2018-01-11T12:11:53.539Z,929.26
2018-01-11T12:13:25.364Z,929.26
2018-01-11T12:14:57.190Z,929.28
2018-01-11T12:16:29.017Z,929.33
2018-01-11T12:18:00.845Z,929.31
2018-01-11T12:19:32.676Z,929.27
2018-01-11T12:21:04.497Z,929.23
2018-01-11T12:22:36.323Z,929.24
2018-01-11T12:24:08.151Z,929.24
2018-01-11T12:25:39.978Z,929.20
2018-01-11T12:27:11.804Z,929.19
2018-01-11T12:28:43.632Z,929.15
2018-01-11T12:30:15.458Z,929.14
2018-01-11T12:31:47.285Z,929.10
2018-01-11T12:33:19.114Z,929.11
2018-01-11T12:34:50.940Z,929.10
2018-01-11T12:36:22.768Z,929.17
2018-01-11T12:37:54.596Z,929.19
2018-01-11T12:39:26.423Z,929.18
2018-01-11T12:40:58.250Z,929.14
2018-01-11T12:42:30.079Z,929.21
2018-01-11T12:44:01.908Z,929.25
2018-01-11T12:45:34.040Z,929.27
2018-01-11T12:47:05.564Z,929.31
2018-01-11T12:48:37.395Z,929.33
2018-01-11T12:50:09.222Z,929.39
2018-01-11T12:51:41.052Z,929.44
2018-01-11T12:53:12.883Z,929.44
2018-01-11T12:54:44.710Z,929.47
2018-01-11T12:56:16.539Z,929.43
2018-01-11T12:57:48.369Z,929.38
2018-01-11T12:59:20.199Z,929.30
2018-01-11T13:00:52.030Z,929.39
2018-01-11T13:02:23.907Z,929.30
2018-01-11T13:03:55.707Z,929.23
2018-01-11T13:05:27.518Z,929.10
2018-01-11T13:07:00.207Z,929.06
2018-01-11T13:08:31.179Z,929.06
2018-01-11T13:10:03.009Z,929.09
2018-01-11T13:11:34.840Z,929.09
2018-01-11T13:13:06.670Z,929.09
2018-01-11T13:14:38.501Z,929.16
2018-01-11T13:16:11.942Z,929.09
2018-01-11T13:17:42.162Z,929.09
2018-01-11T13:19:13.993Z,929.08
2018-01-11T13:20:45.823Z,929.09
2018-01-11T13:22:17.653Z,929.16
2018-01-11T13:23:49.483Z,929.18
2018-01-11T13:25:21.313Z,929.22
2018-01-11T13:26:53.144Z,929.35
2018-01-11T13:28:24.975Z,929.27
2018-01-11T13:29:56.806Z,929.27
2018-01-11T13:31:28.640Z,929.37
2018-01-11T13:33:03.719Z,929.31
2018-01-11T13:34:33.132Z,929.32
2018-01-11T13:36:05.547Z,929.24
2018-01-11T13:37:37.504Z,929.24
2018-01-11T13:39:08.206Z,929.21
2018-01-11T13:40:44.090Z,929.26
2018-01-11T13:42:11.901Z,929.21
2018-01-11T13:43:52.581Z,929.28
2018-01-11T13:45:22.854Z,929.17
2018-01-11T13:46:48.403Z,929.25
2018-01-11T13:48:29.046Z,929.28
2018-01-11T13:49:55.174Z,929.28
2018-01-11T13:51:23.944Z,929.19
2018-01-11T13:52:54.400Z,929.21
2018-01-11T13:54:26.628Z,929.03
2018-01-11T13:55:57.926Z,929.13
2018-01-11T13:57:29.811Z,929.03
2018-01-11T13:59:02.282Z,929.00
2018-01-11T14:00:37.057Z,928.92
2018-01-11T14:02:05.253Z,928.86
2018-01-11T14:03:37.107Z,928.95
2018-01-11T14:05:08.921Z,928.87
2018-01-11T14:06:40.748Z,929.19
2018-01-11T14:08:16.033Z,929.00
2018-01-11T14:09:44.409Z,929.00
2018-01-11T14:11:16.266Z,928.83
2018-01-11T14:12:48.071Z,928.92
2018-01-11T14:14:19.901Z,928.93
2018-01-11T14:15:51.733Z,928.95
2018-01-11T14:17:23.569Z,928.93
2018-01-11T14:18:55.398Z,929.06
2018-01-11T14:20:29.304Z,929.11
2018-01-11T14:21:59.067Z,929.16
2018-01-11T14:23:31.288Z,929.06
2018-01-11T14:25:05.257Z,929.07
2018-01-11T14:26:34.570Z,928.94
2018-01-11T14:28:10.028Z,928.92
2018-01-11T14:29:38.401Z,928.88
2018-01-11T14:31:10.119Z,928.92
2018-01-11T14:32:45.876Z,928.85
2018-01-11T14:34:13.940Z,928.91
2018-01-11T14:35:45.676Z,928.90
2018-01-11T14:37:18.752Z,928.88
2018-01-11T14:38:49.239Z,929.10
2018-01-11T14:40:21.073Z,929.08
2018-01-11T14:41:52.904Z,929.02
2018-01-11T14:43:24.736Z,928.99
2018-01-11T14:44:56.579Z,928.87
2018-01-11T14:46:28.399Z,928.96
2018-01-11T14:48:00.232Z,928.85
2018-01-11T14:49:32.161Z,928.77
2018-01-11T14:51:03.897Z,928.69
2018-01-11T14:52:35.721Z,928.66
2018-01-11T14:54:07.559Z,928.70
2018-01-11T14:55:39.381Z,928.50
2018-01-11T14:57:11.219Z,928.29
2018-01-11T14:58:43.039Z,928.34
2018-01-11T15:00:14.868Z,928.49
2018-01-11T15:01:46.696Z,928.56
2018-01-11T15:03:18.524Z,928.68
2018-01-11T15:04:50.355Z,928.75
2018-01-11T15:06:22.181Z,928.80
2018-01-11T15:07:54.010Z,928.62
2018-01-11T15:09:25.839Z,928.65
2018-01-11T15:10:57.666Z,928.67
2018-01-11T15:12:29.527Z,928.66
2018-01-11T15:14:01.321Z,928.61
2018-01-11T15:15:33.148Z,928.55
2018-01-11T15:17:04.978Z,928.52
2018-01-11T15:18:36.855Z,928.52
2018-01-11T15:20:08.638Z,928.44
2018-01-11T15:21:40.462Z,928.44
2018-01-11T15:23:12.292Z,928.35
2018-01-11T15:24:44.139Z,928.31
2018-01-11T15:26:15.944Z,928.27
2018-01-11T15:27:47.772Z,928.47
2018-01-11T15:29:20.111Z,928.38
2018-01-11T15:30:51.470Z,928.30
2018-01-11T15:32:23.258Z,928.35
2018-01-11T15:33:55.576Z,928.22
2018-01-11T15:35:26.919Z,928.25
2018-01-11T15:36:58.750Z,928.22
2018-01-11T15:38:30.611Z,928.16
2018-01-11T15:40:02.418Z,928.13
2018-01-11T15:41:34.247Z,928.12
2018-01-11T15:43:06.079Z,927.88
2018-01-11T15:44:37.941Z,927.91
2018-01-11T15:46:09.750Z,927.88
2018-01-11T15:47:41.577Z,927.82
2018-01-11T15:49:13.431Z,927.91
2018-01-11T15:50:45.458Z,927.94
2018-01-11T15:52:17.074Z,927.98
2018-01-11T15:53:48.905Z,928.01
2018-01-11T15:55:20.736Z,928.10
2018-01-11T15:56:52.602Z,927.92
2018-01-11T15:58:24.399Z,927.66
2018-01-11T15:59:56.231Z,927.73
2018-01-11T16:01:28.095Z,927.53
2018-01-11T16:02:59.896Z,927.45
2018-01-11T16:04:31.737Z,927.36
2018-01-11T16:06:03.796Z,927.27
2018-01-11T16:07:35.502Z,927.51
2018-01-11T16:09:07.223Z,927.47
2018-01-11T16:10:39.066Z,927.53
2018-01-11T16:12:11.160Z,927.32
2018-01-11T16:13:42.722Z,927.27
2018-01-11T16:15:14.559Z,927.21
2018-01-11T16:16:46.486Z,927.37
2018-01-11T16:18:18.237Z,927.33
2018-01-11T16:19:50.064Z,927.40
2018-01-11T16:21:21.934Z,927.08
2018-01-11T16:22:53.867Z,927.14
2018-01-11T16:24:25.565Z,927.08
2018-01-11T16:25:57.383Z,927.01
2018-01-11T16:27:29.344Z,926.93
2018-01-11T16:29:01.048Z,926.92
2018-01-11T16:30:32.911Z,926.78
2018-01-11T16:32:04.713Z,926.73
2018-01-11T16:33:36.535Z,926.75
2018-01-11T16:35:08.365Z,926.97
2018-01-11T16:36:40.192Z,927.07
2018-01-11T16:38:12.022Z,927.17
2018-01-11T16:39:43.851Z,927.09
2018-01-11T16:41:15.678Z,926.89
2018-01-11T16:42:47.508Z,926.73
2018-01-11T16:44:19.335Z,926.84
2018-01-11T16:45:51.164Z,926.96
2018-01-11T16:47:22.992Z,926.91
2018-01-11T16:48:54.821Z,926.76
2018-01-11T16:50:26.650Z,926.67
2018-01-11T16:51:58.478Z,926.48
2018-01-11T16:53:30.831Z,926.36
2018-01-11T16:55:02.139Z,926.22
2018-01-11T16:56:33.963Z,926.11
2018-01-11T16:58:05.791Z,926.21
2018-01-11T16:59:37.618Z,926.11
2018-01-11T17:01:09.449Z,926.24
2018-01-11T17:02:41.275Z,926.27
2018-01-11T17:04:13.102Z,926.32
2018-01-11T17:05:44.930Z,926.28
2018-01-11T17:07:16.760Z,926.24
2018-01-11T17:08:48.589Z,926.21
2018-01-11T17:10:20.413Z,926.27
2018-01-11T17:11:52.293Z,926.18
2018-01-11T17:13:24.117Z,926.07
2018-01-11T17:14:55.897Z,926.03
2018-01-11T17:16:27.720Z,926.17
2018-01-11T17:17:59.552Z,926.44
2018-01-11T17:19:31.390Z,926.27
2018-01-11T17:21:03.203Z,926.16
2018-01-11T17:22:35.056Z,926.16
2018-01-11T17:24:06.866Z,926.13
2018-01-11T17:25:38.683Z,926.32
2018-01-11T17:27:10.507Z,926.48
2018-01-11T17:28:42.332Z,926.39
2018-01-11T17:30:14.168Z,926.84
2018-01-11T17:31:46.027Z,926.78
2018-01-11T17:33:17.804Z,926.56
2018-01-11T17:34:50.092Z,926.50
2018-01-11T17:36:21.465Z,926.44
2018-01-11T17:37:53.308Z,926.48
2018-01-11T17:39:26.090Z,926.40
2018-01-11T17:40:56.926Z,926.42
2018-01-11T17:42:28.748Z,926.48
2018-01-11T17:44:00.574Z,926.88
2018-01-11T17:45:32.496Z,926.69
2018-01-11T17:47:04.220Z,926.79
2018-01-11T17:48:36.064Z,926.75
2018-01-11T17:50:07.904Z,926.54
2018-01-11T17:51:39.691Z,926.44
2018-01-11T17:53:11.547Z,926.43
2018-01-11T17:54:43.339Z,926.40
2018-01-11T17:56:15.162Z,926.45
2018-01-11T17:57:46.989Z,926.33
2018-01-11T17:59:18.809Z,926.33
2018-01-11T18:00:50.670Z,926.26
2018-01-11T18:02:22.457Z,926.25
2018-01-11T18:03:54.284Z,926.30
2018-01-11T18:05:26.137Z,926.35
2018-01-11T18:06:57.930Z,926.37
2018-01-11T18:08:29.951Z,926.25
2018-01-11T18:10:01.576Z,926.22
2018-01-11T18:11:33.448Z,926.11
2018-01-11T18:13:05.222Z,926.08
2018-01-11T18:14:37.044Z,926.15
2018-01-11T18:16:08.867Z,926.08
2018-01-11T18:17:40.691Z,926.18
2018-01-11T18:19:12.512Z,926.16
2018-01-11T18:20:44.334Z,926.14
2018-01-11T18:22:16.157Z,926.21
2018-01-11T18:23:47.980Z,926.15
2018-01-11T18:25:19.801Z,926.20
2018-01-11T18:26:51.624Z,926.21
2018-01-11T18:28:23.443Z,926.26
2018-01-11T18:29:55.265Z,926.21
2018-01-11T18:31:27.087Z,926.17
2018-01-11T18:32:58.910Z,926.15
2018-01-11T18:34:30.731Z,926.18
2018-01-11T18:36:02.552Z,926.22
2018-01-11T18:37:34.403Z,926.31
2018-01-11T18:39:06.195Z,926.29
2018-01-11T18:40:38.016Z,926.32
2018-01-11T18:42:09.838Z,926.27
2018-01-11T18:43:41.656Z,926.37
2018-01-11T18:45:13.477Z,926.50
2018-01-11T18:46:45.298Z,926.44
2018-01-11T18:48:17.118Z,926.47
2018-01-11T18:49:48.938Z,926.55
2018-01-11T18:51:20.758Z,926.63
2018-01-11T18:52:52.587Z,926.58
2018-01-11T18:54:24.400Z,926.61
2018-01-11T18:55:56.219Z,926.61
2018-01-11T18:57:28.039Z,926.63
2018-01-11T18:58:59.859Z,926.64
2018-01-11T19:00:31.679Z,926.70
2018-01-11T19:02:03.498Z,926.75
2018-01-11T19:03:35.366Z,926.83
2018-01-11T19:05:07.263Z,926.80